createdAt,value
2023-04-07T00:00:47.868Z,50345.18
2023-04-07T00:03:21.890Z,50354.77
2023-04-07T00:05:50.663Z,50339.98
2023-04-07T00:08:18.888Z,50323.18
2023-04-07T00:10:47.189Z,50335.57
2023-04-07T00:13:15.532Z,50361.18
2023-04-07T00:15:43.988Z,50337.98
2023-04-07T00:18:12.216Z,50359.57
2023-04-07T00:20:41.152Z,50353.98
2023-04-07T00:23:09.356Z,50345.57
2023-04-07T00:25:37.669Z,50355.57
2023-04-07T00:28:05.902Z,50348.77
2023-04-07T00:30:35.242Z,50345.98
2023-04-07T00:33:03.644Z,50344.77
2023-04-07T00:35:32.135Z,50339.58
2023-04-07T00:38:00.432Z,50346.38
2023-04-07T00:40:29.420Z,50354.37
2023-04-07T00:42:57.691Z,50359.18
2023-04-07T00:45:26.055Z,50352.38
2023-04-07T00:47:54.367Z,50359.18
2023-04-07T00:50:22.640Z,50357.98
2023-04-07T00:52:51.852Z,50349.18
2023-04-07T00:55:20.143Z,50357.18
2023-04-07T00:57:48.410Z,50360.77
2023-04-07T01:00:17.818Z,50348.38
2023-04-07T01:02:59.396Z,50359.17
2023-04-07T01:05:53.434Z,50359.97
2023-04-07T01:08:27.579Z,50358.77
2023-04-07T01:11:05.010Z,50344.77
2023-04-07T01:14:00.928Z,50355.57
2023-04-07T01:16:54.719Z,50350.37
2023-04-07T01:19:49.118Z,50347.98
2023-04-07T01:22:23.916Z,50346.77
2023-04-07T01:25:16.789Z,50354.77
2023-04-07T01:28:22.575Z,50357.17
2023-04-07T01:30:54.308Z,50343.98
2023-04-07T01:33:23.572Z,50355.97
2023-04-07T01:35:53.128Z,50353.57
2023-04-07T01:38:22.147Z,50351.18
2023-04-07T01:40:51.563Z,50361.57
2023-04-07T01:43:21.551Z,50370.77
2023-04-07T01:45:51.657Z,50355.98
2023-04-07T01:48:20.397Z,50358.37
2023-04-07T01:50:50.313Z,50360.77
2023-04-07T01:53:20.136Z,50357.57
2023-04-07T01:55:50.988Z,50366.37
2023-04-07T01:58:19.246Z,50358.37
2023-04-07T02:00:47.515Z,50357.18
2023-04-07T02:03:51.391Z,50364.77
2023-04-07T02:06:24.997Z,50371.57
2023-04-07T02:08:57.626Z,50361.97
2023-04-07T02:11:27.631Z,50357.98
2023-04-07T02:13:58.730Z,50362.77
2023-04-07T02:16:30.615Z,50379.16
2023-04-07T02:18:59.892Z,50355.57
2023-04-07T02:21:30.779Z,50360.77
2023-04-07T02:24:02.108Z,50365.17
2023-04-07T02:26:36.700Z,50342.77
2023-04-07T02:29:05.882Z,50359.57
2023-04-07T02:31:34.184Z,50373.57
2023-04-07T02:34:02.978Z,50376.37
2023-04-07T02:36:31.648Z,50375.96
2023-04-07T02:39:00.107Z,50369.57
2023-04-07T02:41:28.434Z,50365.17
2023-04-07T02:43:56.765Z,50369.16
2023-04-07T02:46:25.614Z,50370.77
2023-04-07T02:48:53.912Z,50360.37
2023-04-07T02:51:22.131Z,50352.77
2023-04-07T02:53:50.458Z,50373.57
2023-04-07T02:56:19.369Z,50365.97
2023-04-07T02:58:47.574Z,50367.17
2023-04-07T03:01:16.239Z,50355.98
2023-04-07T03:03:45.329Z,50364.37
2023-04-07T03:06:19.079Z,50360.77
2023-04-07T03:08:56.810Z,50373.17
2023-04-07T03:11:25.068Z,50368.77
2023-04-07T03:13:53.991Z,50366.37
2023-04-07T03:16:22.599Z,50368.37
2023-04-07T03:19:12.592Z,50359.57
2023-04-07T03:21:44.266Z,50357.17
2023-04-07T03:24:12.442Z,50371.97
2023-04-07T03:26:42.222Z,50369.97
2023-04-07T03:29:19.551Z,50371.57
2023-04-07T03:31:47.803Z,50353.18
2023-04-07T03:34:17.130Z,50347.18
2023-04-07T03:36:45.405Z,50358.37
2023-04-07T03:39:13.574Z,50375.17
2023-04-07T03:41:41.831Z,50365.57
2023-04-07T03:44:11.697Z,50361.98
2023-04-07T03:46:40.266Z,50375.57
2023-04-07T03:49:09.161Z,50347.57
2023-04-07T03:51:37.666Z,50355.57
2023-04-07T03:54:07.769Z,50359.17
2023-04-07T03:56:40.285Z,50357.97
2023-04-07T03:59:09.047Z,50351.18
2023-04-07T04:01:41.477Z,50337.18
2023-04-07T04:04:13.655Z,50359.57
2023-04-07T04:06:42.355Z,50367.57
2023-04-07T04:09:33.476Z,50357.18
2023-04-07T04:12:01.836Z,50358.38
2023-04-07T04:14:31.345Z,50361.97
2023-04-07T04:17:02.550Z,50354.38
2023-04-07T04:19:45.850Z,50354.77
2023-04-07T04:22:21.174Z,50350.77
2023-04-07T04:24:55.530Z,50357.98
2023-04-07T04:27:24.580Z,50354.38
2023-04-07T04:29:57.211Z,50351.98
2023-04-07T04:32:34.776Z,50330.38
2023-04-07T04:35:04.643Z,50348.37
2023-04-07T04:37:33.965Z,50356.38
2023-04-07T04:40:04.905Z,50365.17
2023-04-07T04:42:34.158Z,50343.98
2023-04-07T04:45:03.869Z,50335.98
2023-04-07T04:47:33.114Z,50344.38
2023-04-07T04:50:03.182Z,50338.77
2023-04-07T04:52:32.794Z,50346.77
2023-04-07T04:55:02.534Z,50335.58
2023-04-07T04:57:31.736Z,50334.78
2023-04-07T05:00:01.168Z,50343.18
2023-04-07T05:02:30.207Z,50341.57
2023-04-07T05:04:59.435Z,50321.98
2023-04-07T05:07:30.178Z,50317.59
2023-04-07T05:09:59.475Z,50324.79
2023-04-07T05:12:30.993Z,50315.99
2023-04-07T05:15:01.936Z,50324.78
2023-04-07T05:17:30.286Z,50337.98
2023-04-07T05:20:00.244Z,50319.59
2023-04-07T05:22:36.591Z,50327.18
2023-04-07T05:25:06.764Z,50328.38
2023-04-07T05:27:38.300Z,50307.18
2023-04-07T05:30:13.284Z,50322.38
2023-04-07T05:32:41.679Z,50314.38
2023-04-07T05:35:19.730Z,50319.59
2023-04-07T05:37:52.633Z,50315.59
2023-04-07T05:40:21.371Z,50313.18
2023-04-07T05:42:49.891Z,50309.18
2023-04-07T05:45:18.301Z,50317.18
2023-04-07T05:47:51.453Z,50311.99
2023-04-07T05:50:24.784Z,50328.38
2023-04-07T05:52:53.256Z,50312.79
2023-04-07T05:55:26.537Z,50309.99
2023-04-07T05:57:57.744Z,50308.79
2023-04-07T06:00:28.621Z,50307.18
2023-04-07T06:03:04.051Z,50310.39
2023-04-07T06:05:38.376Z,50297.59
2023-04-07T06:08:06.849Z,50293.59
2023-04-07T06:10:35.115Z,50308.79
2023-04-07T06:13:03.468Z,50309.59
2023-04-07T06:15:32.054Z,50280.40
2023-04-07T06:18:00.671Z,50287.59
2023-04-07T06:20:29.294Z,50295.99
2023-04-07T06:22:58.933Z,50283.20
2023-04-07T06:25:28.449Z,50301.59
2023-04-07T06:27:56.879Z,50280.00
2023-04-07T06:30:25.149Z,50292.39
2023-04-07T06:32:56.744Z,50306.39
2023-04-07T06:35:28.181Z,50286.39
2023-04-07T06:37:57.176Z,50282.39
2023-04-07T06:40:25.348Z,50281.59
2023-04-07T06:42:54.829Z,50282.79
2023-04-07T06:45:33.187Z,50274.80
2023-04-07T06:48:01.949Z,50279.60
2023-04-07T06:50:30.364Z,50294.39
2023-04-07T06:52:58.748Z,50267.20
2023-04-07T06:55:27.503Z,50272.40
2023-04-07T06:57:56.286Z,50274.40
2023-04-07T07:00:25.407Z,50270.00
2023-04-07T07:02:56.001Z,50263.60
2023-04-07T07:05:26.574Z,50267.20
2023-04-07T07:07:54.998Z,50272.00
2023-04-07T07:10:24.276Z,50282.40
2023-04-07T07:12:52.638Z,50255.61
2023-04-07T07:15:20.933Z,50273.60
2023-04-07T07:17:49.090Z,50259.20
2023-04-07T07:20:17.441Z,50258.80
2023-04-07T07:22:46.137Z,50242.01
2023-04-07T07:25:14.774Z,50250.80
2023-04-07T07:27:43.090Z,50248.41
2023-04-07T07:30:11.822Z,50262.80
2023-04-07T07:32:40.703Z,50242.01
2023-04-07T07:35:09.126Z,50251.61
2023-04-07T07:37:37.412Z,50245.21
2023-04-07T07:40:06.391Z,50249.20
2023-04-07T07:42:35.743Z,50240.01
2023-04-07T07:45:04.545Z,50257.60
2023-04-07T07:47:33.485Z,50242.41
2023-04-07T07:50:01.916Z,50245.21
2023-04-07T07:52:30.165Z,50230.81
2023-04-07T07:54:59.531Z,50245.61
2023-04-07T07:57:28.035Z,50243.61
2023-04-07T07:59:56.564Z,50254.41
2023-04-07T08:02:30.991Z,50235.21
2023-04-07T08:05:00.591Z,50225.62
2023-04-07T08:07:29.200Z,50234.01
2023-04-07T08:09:57.906Z,50247.61
2023-04-07T08:12:26.259Z,50215.22
2023-04-07T08:14:54.547Z,50231.61
2023-04-07T08:17:22.857Z,50227.62
2023-04-07T08:19:54.320Z,50235.61
2023-04-07T08:22:22.791Z,50218.02
2023-04-07T08:24:51.161Z,50236.41
2023-04-07T08:27:21.029Z,50220.41
2023-04-07T08:30:03.046Z,50230.02
2023-04-07T08:32:39.276Z,50225.21
2023-04-07T08:35:08.285Z,50234.01
2023-04-07T08:37:37.802Z,50222.02
2023-04-07T08:40:10.180Z,50228.01
2023-04-07T08:42:42.527Z,50233.21
2023-04-07T08:45:11.078Z,50232.81
2023-04-07T08:47:44.528Z,50238.01
2023-04-07T08:50:18.034Z,50212.82
2023-04-07T08:52:51.597Z,50212.82
2023-04-07T08:55:20.501Z,50219.22
2023-04-07T08:57:48.873Z,50226.02
2023-04-07T09:00:19.812Z,50222.82
2023-04-07T09:02:50.201Z,50212.82
2023-04-07T09:05:18.527Z,50205.22
2023-04-07T09:07:47.504Z,50206.82
2023-04-07T09:10:17.618Z,50204.42
2023-04-07T09:12:46.277Z,50197.63
2023-04-07T09:15:14.576Z,50192.43
2023-04-07T09:17:43.495Z,50199.23
2023-04-07T09:20:11.949Z,50214.02
2023-04-07T09:22:43.173Z,50208.02
2023-04-07T09:25:27.417Z,50212.02
2023-04-07T09:27:58.826Z,50199.23
2023-04-07T09:30:28.764Z,50197.23
2023-04-07T09:32:59.269Z,50203.62
2023-04-07T09:35:28.941Z,50198.82
2023-04-07T09:38:08.689Z,50218.02
2023-04-07T09:40:40.042Z,50191.63
2023-04-07T09:43:20.377Z,50185.63
2023-04-07T09:45:48.946Z,50200.82
2023-04-07T09:48:22.129Z,50196.02
2023-04-07T09:50:51.927Z,50182.83
2023-04-07T09:53:20.444Z,50185.23
2023-04-07T09:55:50.668Z,50187.63
2023-04-07T09:58:20.051Z,50176.83
2023-04-07T10:00:49.397Z,50173.23
2023-04-07T10:03:18.295Z,50177.23
2023-04-07T10:05:47.151Z,50158.84
2023-04-07T10:08:16.299Z,50178.43
2023-04-07T10:10:44.773Z,50183.23
2023-04-07T10:13:13.354Z,50184.43
2023-04-07T10:15:43.015Z,50172.43
2023-04-07T10:18:12.130Z,50184.03
2023-04-07T10:20:42.872Z,50182.43
2023-04-07T10:23:23.135Z,50185.63
2023-04-07T10:25:55.191Z,50176.83
2023-04-07T10:28:26.666Z,50162.84
2023-04-07T10:30:55.916Z,50175.64
2023-04-07T10:33:49.097Z,50184.43
2023-04-07T10:36:23.090Z,50189.63
2023-04-07T10:39:10.049Z,50185.23
2023-04-07T10:41:41.090Z,50188.03
2023-04-07T10:44:17.225Z,50185.63
2023-04-07T10:46:45.417Z,50172.83
2023-04-07T10:49:16.288Z,50156.04
2023-04-07T10:52:12.335Z,50170.84
2023-04-07T10:54:41.821Z,50190.43
2023-04-07T10:57:16.196Z,50179.63
2023-04-07T11:00:11.846Z,50180.03
2023-04-07T11:02:40.666Z,50176.04
2023-04-07T11:05:21.527Z,50162.84
2023-04-07T11:07:52.351Z,50161.64
2023-04-07T11:10:22.376Z,50165.64
2023-04-07T11:13:06.566Z,50166.03
2023-04-07T11:15:39.416Z,50164.84
2023-04-07T11:18:18.023Z,50164.84
2023-04-07T11:20:48.783Z,50172.84
2023-04-07T11:23:18.697Z,50178.03
2023-04-07T11:25:49.471Z,50202.42
2023-04-07T11:28:18.324Z,50200.42
2023-04-07T11:30:52.352Z,50192.82
2023-04-07T11:33:29.358Z,50212.42
2023-04-07T11:36:02.001Z,50201.23
2023-04-07T11:38:39.131Z,50189.23
2023-04-07T11:41:12.782Z,50220.02
2023-04-07T11:43:42.580Z,50212.02
2023-04-07T11:46:18.939Z,50203.23
2023-04-07T11:48:47.659Z,50188.43
2023-04-07T11:51:22.856Z,50218.41
2023-04-07T11:53:56.565Z,50220.42
2023-04-07T11:56:28.446Z,50197.23
2023-04-07T11:58:58.436Z,50203.23
2023-04-07T12:01:40.980Z,50191.63
2023-04-07T12:04:14.156Z,50184.83
2023-04-07T12:06:51.187Z,50192.02
2023-04-07T12:09:29.482Z,50211.22
2023-04-07T12:11:59.473Z,50220.81
2023-04-07T12:14:28.046Z,50201.22
2023-04-07T12:16:58.281Z,50202.82
2023-04-07T12:19:28.483Z,50217.62
2023-04-07T12:21:57.288Z,50184.43
2023-04-07T12:24:26.934Z,50214.02
2023-04-07T12:26:55.401Z,50181.23
2023-04-07T12:29:24.329Z,50192.43
2023-04-07T12:31:52.632Z,50200.02
2023-04-07T12:34:20.964Z,50198.82
2023-04-07T12:36:50.174Z,50197.23
2023-04-07T12:39:18.565Z,50198.43
2023-04-07T12:41:48.762Z,50224.02
2023-04-07T12:44:16.965Z,50218.42
2023-04-07T12:46:45.634Z,50190.03
2023-04-07T12:49:14.161Z,50204.82
2023-04-07T12:51:42.472Z,50198.03
2023-04-07T12:54:11.036Z,50210.42
2023-04-07T12:56:41.124Z,50210.82
2023-04-07T12:59:09.910Z,50208.42
2023-04-07T13:01:38.623Z,50205.62
2023-04-07T13:04:07.726Z,50202.82
2023-04-07T13:06:38.899Z,50206.02
2023-04-07T13:09:07.244Z,50215.62
2023-04-07T13:11:36.426Z,50190.02
2023-04-07T13:14:07.513Z,50198.43
2023-04-07T13:16:36.043Z,50209.22
2023-04-07T13:19:04.512Z,50208.43
2023-04-07T13:21:46.225Z,50192.43
2023-04-07T13:24:16.497Z,50197.23
2023-04-07T13:26:44.782Z,50198.02
2023-04-07T13:29:15.286Z,50186.82
2023-04-07T13:31:46.208Z,50188.83
2023-04-07T13:34:16.017Z,50192.02
2023-04-07T13:36:44.546Z,50196.82
2023-04-07T13:39:13.671Z,50184.03
2023-04-07T13:41:42.052Z,50185.63
2023-04-07T13:44:10.576Z,50183.23
2023-04-07T13:46:39.227Z,50210.82
2023-04-07T13:49:09.274Z,50206.42
2023-04-07T13:51:38.126Z,50214.02
2023-04-07T13:54:06.750Z,50200.02
2023-04-07T13:56:35.809Z,50216.82
2023-04-07T13:59:08.960Z,50203.22
2023-04-07T14:01:39.295Z,50212.82
2023-04-07T14:04:08.306Z,50212.42
2023-04-07T14:06:39.956Z,50213.22
2023-04-07T14:09:08.664Z,50211.22
2023-04-07T14:11:37.213Z,50212.82
2023-04-07T14:14:06.481Z,50202.82
2023-04-07T14:16:34.973Z,50188.03
2023-04-07T14:19:04.922Z,50202.82
2023-04-07T14:21:34.038Z,50212.02
2023-04-07T14:24:02.875Z,50220.42
2023-04-07T14:26:31.531Z,50207.62
2023-04-07T14:29:00.133Z,50218.82
2023-04-07T14:31:28.969Z,50211.22
2023-04-07T14:33:57.832Z,50213.22
2023-04-07T14:36:27.498Z,50229.62
2023-04-07T14:38:55.835Z,50221.62
2023-04-07T14:41:27.764Z,50224.02
2023-04-07T14:43:56.703Z,50233.61
2023-04-07T14:46:27.940Z,50227.61
2023-04-07T14:48:58.691Z,50224.41
2023-04-07T14:51:27.693Z,50213.22
2023-04-07T14:53:57.961Z,50214.02
2023-04-07T14:56:27.508Z,50235.61
2023-04-07T14:58:59.072Z,50225.21
2023-04-07T15:01:27.590Z,50216.82
2023-04-07T15:03:58.722Z,50229.21
2023-04-07T15:06:28.577Z,50230.41
2023-04-07T15:08:59.586Z,50209.62
2023-04-07T15:11:27.908Z,50218.42
2023-04-07T15:13:56.196Z,50226.82
2023-04-07T15:16:25.015Z,50226.41
2023-04-07T15:18:53.967Z,50225.62
2023-04-07T15:21:22.154Z,50226.02
2023-04-07T15:23:50.926Z,50226.81
2023-04-07T15:26:19.414Z,50213.22
2023-04-07T15:28:47.757Z,50235.61
2023-04-07T15:31:16.059Z,50224.02
2023-04-07T15:33:44.570Z,50240.01
2023-04-07T15:36:15.195Z,50244.01
2023-04-07T15:38:50.880Z,50234.01
2023-04-07T15:41:19.202Z,50241.21
2023-04-07T15:43:47.795Z,50227.21
2023-04-07T15:46:18.512Z,50240.41
2023-04-07T15:48:48.160Z,50237.61
2023-04-07T15:51:16.606Z,50248.41
2023-04-07T15:53:44.913Z,50244.41
2023-04-07T15:56:13.832Z,50241.61
2023-04-07T15:58:42.259Z,50249.61
2023-04-07T16:01:11.018Z,50246.41
2023-04-07T16:03:41.073Z,50261.61
2023-04-07T16:06:13.090Z,50244.01
2023-04-07T16:08:41.643Z,50245.21
2023-04-07T16:11:12.474Z,50223.61
2023-04-07T16:13:43.756Z,50228.41
2023-04-07T16:16:17.228Z,50252.01
2023-04-07T16:18:49.013Z,50240.01
2023-04-07T16:21:18.474Z,50250.80
2023-04-07T16:24:00.667Z,50256.01
2023-04-07T16:26:31.413Z,50248.41
2023-04-07T16:29:02.863Z,50255.21
2023-04-07T16:31:31.283Z,50242.01
2023-04-07T16:34:00.581Z,50241.61
2023-04-07T16:36:30.254Z,50239.61
2023-04-07T16:38:58.869Z,50237.61
2023-04-07T16:41:30.432Z,50256.01
2023-04-07T16:43:58.974Z,50246.41
2023-04-07T16:46:28.891Z,50266.41
2023-04-07T16:49:00.630Z,50246.81
2023-04-07T16:51:33.468Z,50260.01
2023-04-07T16:54:03.712Z,50258.40
2023-04-07T16:56:31.898Z,50252.41
2023-04-07T16:59:01.911Z,50265.20
2023-04-07T17:01:31.786Z,50248.41
2023-04-07T17:04:02.719Z,50254.01
2023-04-07T17:06:34.936Z,50285.60
2023-04-07T17:09:06.091Z,50252.41
2023-04-07T17:11:34.376Z,50265.21
2023-04-07T17:14:05.216Z,50258.00
2023-04-07T17:16:36.764Z,50254.01
2023-04-07T17:19:06.398Z,50270.00
2023-04-07T17:21:34.801Z,50268.80
2023-04-07T17:24:02.994Z,50271.60
2023-04-07T17:26:31.575Z,50261.20
2023-04-07T17:29:00.041Z,50281.20
2023-04-07T17:31:28.290Z,50254.80
2023-04-07T17:33:56.758Z,50258.40
2023-04-07T17:36:25.194Z,50273.20
2023-04-07T17:38:53.451Z,50268.40
2023-04-07T17:41:22.935Z,50262.00
2023-04-07T17:43:53.813Z,50265.20
2023-04-07T17:46:23.441Z,50276.79
2023-04-07T17:48:55.225Z,50261.60
2023-04-07T17:51:25.695Z,50269.20
2023-04-07T17:53:59.140Z,50268.40
2023-04-07T17:56:30.969Z,50259.20
2023-04-07T17:59:01.815Z,50278.40
2023-04-07T18:01:35.327Z,50269.20
2023-04-07T18:04:07.026Z,50262.00
2023-04-07T18:06:36.942Z,50291.20
2023-04-07T18:09:07.343Z,50275.60
2023-04-07T18:11:37.344Z,50292.39
2023-04-07T18:14:09.954Z,50282.40
2023-04-07T18:16:39.416Z,50272.00
2023-04-07T18:19:07.642Z,50285.99
2023-04-07T18:21:37.917Z,50272.00
2023-04-07T18:24:12.635Z,50266.80
2023-04-07T18:26:59.446Z,50289.20
2023-04-07T18:29:34.558Z,50292.39
2023-04-07T18:32:03.011Z,50278.00
2023-04-07T18:34:36.796Z,50294.79
2023-04-07T18:37:07.530Z,50281.60
2023-04-07T18:39:38.337Z,50268.80
2023-04-07T18:42:06.856Z,50281.20
2023-04-07T18:44:40.261Z,50279.99
2023-04-07T18:47:10.148Z,50290.79
2023-04-07T18:49:40.077Z,50286.80
2023-04-07T18:52:10.391Z,50275.60
2023-04-07T18:54:38.728Z,50287.99
2023-04-07T18:57:06.909Z,50286.00
2023-04-07T18:59:36.872Z,50282.80
2023-04-07T19:02:05.374Z,50295.99
2023-04-07T19:04:34.590Z,50288.79
2023-04-07T19:07:03.646Z,50287.59
2023-04-07T19:09:33.476Z,50294.39
2023-04-07T19:12:01.922Z,50285.20
2023-04-07T19:14:35.630Z,50276.40
2023-04-07T19:17:06.695Z,50282.00
2023-04-07T19:19:37.710Z,50295.59
2023-04-07T19:22:06.128Z,50303.99
2023-04-07T19:24:34.361Z,50270.80
2023-04-07T19:27:07.293Z,50280.80
2023-04-07T19:29:36.045Z,50284.80
2023-04-07T19:32:04.807Z,50298.39
2023-04-07T19:34:36.105Z,50302.79
2023-04-07T19:37:10.643Z,50290.79
2023-04-07T19:39:39.373Z,50303.99
2023-04-07T19:42:09.201Z,50297.59
2023-04-07T19:44:40.486Z,50292.79
2023-04-07T19:47:12.236Z,50294.39
2023-04-07T19:49:41.100Z,50290.39
2023-04-07T19:52:12.406Z,50284.40
2023-04-07T19:54:41.213Z,50278.40
2023-04-07T19:57:11.822Z,50295.99
2023-04-07T19:59:43.126Z,50300.39
2023-04-07T20:02:11.622Z,50299.19
2023-04-07T20:04:43.071Z,50303.19
2023-04-07T20:07:13.375Z,50310.39
2023-04-07T20:09:41.679Z,50306.39
2023-04-07T20:12:12.379Z,50292.39
2023-04-07T20:14:41.347Z,50302.79
2023-04-07T20:17:12.509Z,50294.79
2023-04-07T20:19:41.806Z,50306.39
2023-04-07T20:22:13.108Z,50305.19
2023-04-07T20:24:43.863Z,50319.18
2023-04-07T20:27:13.041Z,50284.00
2023-04-07T20:29:46.290Z,50303.99
2023-04-07T20:32:16.924Z,50307.99
2023-04-07T20:34:51.966Z,50287.20
2023-04-07T20:37:23.264Z,50302.39
2023-04-07T20:39:58.147Z,50310.79
2023-04-07T20:42:27.552Z,50297.99
2023-04-07T20:45:03.915Z,50325.59
2023-04-07T20:47:32.689Z,50312.39
2023-04-07T20:50:02.535Z,50295.59
2023-04-07T20:52:40.298Z,50306.39
2023-04-07T20:55:11.761Z,50307.59
2023-04-07T20:57:42.253Z,50327.58
2023-04-07T21:00:11.134Z,50306.79
2023-04-07T21:02:39.525Z,50322.38
2023-04-07T21:05:09.379Z,50303.19
2023-04-07T21:07:37.759Z,50301.59
2023-04-07T21:10:07.541Z,50321.18
2023-04-07T21:12:36.760Z,50318.79
2023-04-07T21:15:05.492Z,50304.79
2023-04-07T21:17:33.952Z,50309.99
2023-04-07T21:20:02.180Z,50309.59
2023-04-07T21:22:35.700Z,50304.39
2023-04-07T21:25:07.192Z,50290.39
2023-04-07T21:27:36.345Z,50319.98
2023-04-07T21:30:06.604Z,50307.59
2023-04-07T21:32:35.025Z,50315.59
2023-04-07T21:35:04.841Z,50312.38
2023-04-07T21:37:33.292Z,50320.38
2023-04-07T21:40:01.579Z,50315.18
2023-04-07T21:42:29.939Z,50315.59
2023-04-07T21:44:59.626Z,50303.19
2023-04-07T21:47:27.909Z,50322.38
2023-04-07T21:49:58.014Z,50313.18
2023-04-07T21:52:26.660Z,50323.18
2023-04-07T21:54:54.872Z,50308.79
2023-04-07T21:57:23.711Z,50339.58
2023-04-07T21:59:52.791Z,50323.19
2023-04-07T22:02:22.109Z,50293.20
2023-04-07T22:04:50.793Z,50329.58
2023-04-07T22:07:22.286Z,50309.59
2023-04-07T22:09:51.533Z,50317.59
2023-04-07T22:12:19.731Z,50315.99
2023-04-07T22:14:47.924Z,50321.98
2023-04-07T22:17:17.207Z,50305.59
2023-04-07T22:19:45.661Z,50322.78
2023-04-07T22:22:14.200Z,50328.78
2023-04-07T22:24:42.559Z,50306.79
2023-04-07T22:27:11.467Z,50311.19
2023-04-07T22:29:39.648Z,50315.19
2023-04-07T22:32:07.825Z,50307.19
2023-04-07T22:34:36.563Z,50326.78
2023-04-07T22:37:04.839Z,50307.98
2023-04-07T22:39:33.045Z,50312.79
2023-04-07T22:42:02.797Z,50328.78
2023-04-07T22:44:31.316Z,50313.18
2023-04-07T22:46:59.671Z,50336.78
2023-04-07T22:49:28.401Z,50324.78
2023-04-07T22:51:57.429Z,50325.98
2023-04-07T22:54:25.783Z,50317.59
2023-04-07T22:56:54.079Z,50310.39
2023-04-07T22:59:25.020Z,50319.59
2023-04-07T23:01:53.821Z,50309.19
2023-04-07T23:04:22.918Z,50312.39
2023-04-07T23:06:51.792Z,50317.58
2023-04-07T23:09:21.727Z,50312.79
2023-04-07T23:11:50.069Z,50322.38
2023-04-07T23:14:18.268Z,50317.98
2023-04-07T23:16:46.910Z,50323.18
2023-04-07T23:19:18.006Z,50323.18
2023-04-07T23:21:46.295Z,50328.38
2023-04-07T23:24:15.017Z,50332.78
2023-04-07T23:26:43.277Z,50316.79
2023-04-07T23:29:12.889Z,50318.79
2023-04-07T23:31:41.705Z,50335.98
2023-04-07T23:34:09.996Z,50305.99
2023-04-07T23:36:41.163Z,50323.98
2023-04-07T23:39:09.360Z,50326.38
2023-04-07T23:41:38.558Z,50329.58
2023-04-07T23:44:07.488Z,50331.58
2023-04-07T23:46:35.692Z,50330.78
2023-04-07T23:49:04.112Z,50330.38
2023-04-07T23:51:32.460Z,50327.58
2023-04-07T23:54:01.265Z,50349.18
2023-04-07T23:56:30.182Z,50321.98
2023-04-07T23:58:58.401Z,50325.98
